Anerly, United Kingdom
Current Conditions -  °F | °C
As of 3:50 PM on Thursday 27 Nov 2014 (Local Time) from EGKB Reporting Station
Broken Clouds Broken Clouds  
Wind Chill: 50°   Ceiling: 4500
Heat Index: 50°   Visibility: 6mi
Dew Point: 46°   Wind: 5mph
Humidity: 87%   Direction: 120°ESE
Pressure: 29.59"   Gusts: NA
Location:  51.41°N, 0.06°W
Report Text: EGKB 271550Z 12004KT 9999 FEW020 BKN045 10/08 Q1002
Loading
Personal Weather Stations






























Interactive Weather Map New forecast layout! Learn more

10-Day Weather Forecast

Advertisements
Track Severe Weather on mobile